Airfield :







YOU CAN JOIN US ON...

 
LOGIN :

Register | Disclaimer

   EN    FR    IT 

 









Legend :    VFR   Marginal VFR   IFR   Intensive IFR   Very Intensive IFR
Visi :
Ceiling :
>= 8 km
>= 3000ft
5 to 8 km
1000 to 3000 ft
1500m to 5 km
500 to 1000 ft
800 to 1500m
200 to 500 ft
< 800m
< 200 ft
Symbols :   Thunderstorms  Fog  Heavy snow  Heavy precipitations  Wind > 20 kt







- Airport Elevation : 461 ft
- IATA code : YYT


CYYT - St John's Int

CURRENT METAR :
  • 180300Z 32013KT 15SM OVC010 07/06 A2974 RMK SF8 SLP077

EXPIRED METARs :
  • 180200Z 32011G17KT 6SM -SHRA BR BKN009 OVC016 07/06 A2974 RMK SF6SC2 TCU EMBD SLP076
  • 180137Z 31013KT 2 1/2SM -SHRA BR OVC009 07/06 A2974 RMK SF8 TCU EMBD SLP077
  • 180127Z 30011KT 10SM -SHRA OVC010 07/06 A2974 RMK SF8 TCU EMBD SLP077
  • 180100Z 31011G19KT 15SM OVC014 07/06 A2974 RMK SC8 SLP078
  • 180038Z 32010G17KT 15SM OVC014 07/06 A2974 RMK SC8 SLP078

TAF AMD TAF CYYT
Valid from the 18 at 01:00 until the 19 at 00:00 UTC


180130Z 1801/1824 32010G20KT P6SM OVC010
TEMPO 1801/1805 5SM -SHRA BR OVC008
FM180500 32012G22KT 6SM BR OVC006
TEMPO 1805/1815 21/2SM -SHRA BR OVC003
BECMG 1808/1810 33015KT
FM181500 36015G28KT 4SM -SHRA BR OVC006
FM181800 36020G30KT P6SM -SHRA SCT008 OVC012
FM182100 36018G28KT P6SM OVC015 RMK NXT FCST BY 180600Z
No reported NOTAMs for that airfield.



MET'MAP, your aeronautical weather chart ! - Copyright ORBIFLY December 2007 - Disclaimer

ORBIFLY MET'MAP TEAM :

Programming & Development : Alexandra Zaïnal
Concept & Development : Baudouin d'Aumeries
Co-Development & Prog : Marc-Olivier Méhu
Technical & hardware support : Manuel Goepfert

Contact : metmap@orbifly.com




SOURCES & CREDITS :

   NOAA